createdAt,value
2017-09-20T00:00:13.159Z,0
2017-09-20T00:01:23.190Z,0
2017-09-20T00:02:33.555Z,0
2017-09-20T00:03:43.893Z,0
2017-09-20T00:04:53.912Z,0
2017-09-20T00:06:04.258Z,0
2017-09-20T00:07:15.397Z,0
2017-09-20T00:08:25.629Z,0
2017-09-20T00:09:35.971Z,0
2017-09-20T00:10:46.302Z,0
2017-09-20T00:11:56.635Z,0
2017-09-20T00:13:06.971Z,0
2017-09-20T00:14:17.013Z,0
2017-09-20T00:15:27.350Z,0
2017-09-20T00:16:37.396Z,0
2017-09-20T00:17:47.415Z,0
2017-09-20T00:18:57.746Z,0
2017-09-20T00:20:08.073Z,0
2017-09-20T00:21:18.413Z,0
2017-09-20T00:22:28.769Z,0
2017-09-20T00:23:39.093Z,0
2017-09-20T00:24:49.467Z,0
2017-09-20T00:25:59.815Z,0
2017-09-20T00:27:09.822Z,0
2017-09-20T00:28:20.174Z,0
2017-09-20T00:29:30.517Z,0
2017-09-20T00:30:40.862Z,0
2017-09-20T00:31:50.880Z,0
2017-09-20T00:33:04.905Z,0
2017-09-20T00:34:14.939Z,0
2017-09-20T00:35:25.278Z,0
2017-09-20T00:36:35.651Z,0
2017-09-20T00:37:46.017Z,0
2017-09-20T00:38:57.662Z,0
2017-09-20T00:40:08.004Z,0
2017-09-20T00:41:18.025Z,0
2017-09-20T00:42:28.362Z,0
2017-09-20T00:43:38.730Z,0
2017-09-20T00:44:49.076Z,0
2017-09-20T00:45:59.413Z,0
2017-09-20T00:47:09.438Z,0
2017-09-20T00:48:19.510Z,0
2017-09-20T00:49:29.846Z,0
2017-09-20T00:50:40.212Z,0
2017-09-20T00:51:50.598Z,0
2017-09-20T00:53:00.922Z,0
2017-09-20T00:54:11.277Z,0
2017-09-20T00:55:21.616Z,0
2017-09-20T00:56:31.642Z,0
2017-09-20T00:57:41.965Z,0
2017-09-20T00:58:52.373Z,0
2017-09-20T01:00:02.719Z,0
2017-09-20T01:01:13.074Z,0
2017-09-20T01:02:23.082Z,0
2017-09-20T01:03:33.423Z,0
2017-09-20T01:04:43.464Z,0
2017-09-20T01:05:53.538Z,0
2017-09-20T01:07:03.876Z,0
2017-09-20T01:08:13.905Z,0
2017-09-20T01:09:23.919Z,0
2017-09-20T01:10:34.248Z,0
2017-09-20T01:11:44.260Z,0
2017-09-20T01:12:54.606Z,0
2017-09-20T01:14:04.959Z,0
2017-09-20T01:15:15.296Z,0
2017-09-20T01:16:25.627Z,0
2017-09-20T01:17:35.960Z,0
2017-09-20T01:18:46.296Z,0
2017-09-20T01:19:56.348Z,0
2017-09-20T01:21:06.377Z,0
2017-09-20T01:22:16.779Z,0
2017-09-20T01:23:27.107Z,0
2017-09-20T01:24:36.805Z,0
2017-09-20T01:25:47.180Z,0
2017-09-20T01:26:57.542Z,0
2017-09-20T01:28:09.556Z,0
2017-09-20T01:29:19.900Z,0
2017-09-20T01:30:30.233Z,0
2017-09-20T01:31:40.556Z,0
2017-09-20T01:32:50.896Z,0
2017-09-20T01:34:01.238Z,0
2017-09-20T01:35:11.567Z,0
2017-09-20T01:36:21.577Z,0
2017-09-20T01:37:31.606Z,0
2017-09-20T01:38:41.941Z,0
2017-09-20T01:39:52.299Z,0
2017-09-20T01:41:02.645Z,0
2017-09-20T01:42:13.006Z,0
2017-09-20T01:43:23.339Z,0
2017-09-20T01:44:33.679Z,0
2017-09-20T01:45:44.023Z,0
2017-09-20T01:46:55.072Z,0
2017-09-20T01:48:05.401Z,0
2017-09-20T01:49:15.731Z,0
2017-09-20T01:50:26.068Z,0
2017-09-20T01:51:37.587Z,0
2017-09-20T01:52:47.927Z,0
2017-09-20T01:53:58.269Z,0
2017-09-20T01:55:08.340Z,0
2017-09-20T01:56:18.674Z,0
2017-09-20T01:57:28.694Z,0
2017-09-20T01:58:38.714Z,0
2017-09-20T01:59:49.044Z,0
2017-09-20T02:00:59.436Z,0
2017-09-20T02:02:09.153Z,0
2017-09-20T02:03:19.494Z,0
2017-09-20T02:04:29.846Z,0
2017-09-20T02:05:39.870Z,0
2017-09-20T02:06:50.190Z,0
2017-09-20T02:08:00.224Z,0
2017-09-20T02:09:10.581Z,0
2017-09-20T02:10:20.942Z,0
2017-09-20T02:11:31.286Z,0
2017-09-20T02:12:41.774Z,0
2017-09-20T02:13:51.833Z,0
2017-09-20T02:15:02.170Z,0
2017-09-20T02:16:12.509Z,0
2017-09-20T02:17:22.910Z,0
2017-09-20T02:18:33.240Z,0
2017-09-20T02:19:43.257Z,0
2017-09-20T02:20:53.605Z,0
2017-09-20T02:22:03.945Z,0
2017-09-20T02:23:13.983Z,0
2017-09-20T02:24:24.350Z,0
2017-09-20T02:25:34.682Z,0
2017-09-20T02:26:45.025Z,0
2017-09-20T02:27:55.364Z,0
2017-09-20T02:29:05.711Z,0
2017-09-20T02:30:16.042Z,0
2017-09-20T02:31:26.395Z,0
2017-09-20T02:32:36.401Z,0
2017-09-20T02:33:46.746Z,0
2017-09-20T02:34:57.109Z,0
2017-09-20T02:36:07.186Z,0
2017-09-20T02:37:17.533Z,0
2017-09-20T02:38:27.550Z,0
2017-09-20T02:39:37.887Z,0
2017-09-20T02:40:48.240Z,0
2017-09-20T02:41:58.301Z,0
2017-09-20T02:43:08.702Z,0
2017-09-20T02:44:19.035Z,0
2017-09-20T02:45:29.042Z,0
2017-09-20T02:46:39.062Z,0
2017-09-20T02:47:49.444Z,0
2017-09-20T02:48:59.773Z,0
2017-09-20T02:50:10.123Z,0
2017-09-20T02:51:20.156Z,0
2017-09-20T02:52:30.497Z,0
2017-09-20T02:53:40.208Z,0
2017-09-20T02:54:50.541Z,0
2017-09-20T02:56:00.578Z,0
2017-09-20T02:57:10.935Z,0
2017-09-20T02:58:21.262Z,0
2017-09-20T02:59:31.641Z,0
2017-09-20T03:00:41.344Z,0
2017-09-20T03:01:51.707Z,0
2017-09-20T03:34:02.655Z,0
2017-09-20T03:35:12.999Z,0
2017-09-20T03:36:23.320Z,0
2017-09-20T03:37:33.710Z,0
2017-09-20T03:38:44.044Z,0
2017-09-20T03:39:54.062Z,0
2017-09-20T03:41:04.407Z,0
2017-09-20T03:42:14.751Z,0
2017-09-20T03:43:24.813Z,0
2017-09-20T03:44:34.530Z,0
2017-09-20T03:45:44.866Z,0
2017-09-20T03:46:55.208Z,0
2017-09-20T03:48:04.907Z,0
2017-09-20T03:49:15.259Z,0
2017-09-20T03:50:25.600Z,0
2017-09-20T03:51:35.941Z,0
2017-09-20T03:52:46.284Z,0
2017-09-20T03:53:56.666Z,0
2017-09-20T03:55:06.689Z,0
2017-09-20T03:56:17.067Z,0
2017-09-20T03:57:27.405Z,0
2017-09-20T03:58:37.426Z,0
2017-09-20T03:59:47.763Z,0
2017-09-20T04:00:59.290Z,0
2017-09-20T04:02:09.638Z,0
2017-09-20T04:03:20.241Z,0
2017-09-20T04:04:30.580Z,0
2017-09-20T04:05:40.019Z,0
2017-09-20T04:06:50.361Z,0
2017-09-20T04:08:00.702Z,0
2017-09-20T04:09:11.080Z,0
2017-09-20T04:10:20.795Z,0
2017-09-20T04:11:31.122Z,0
2017-09-20T04:12:43.345Z,0
2017-09-20T04:13:53.679Z,0
2017-09-20T04:15:04.021Z,0
2017-09-20T04:16:14.370Z,0
2017-09-20T04:17:24.704Z,0
2017-09-20T04:18:35.041Z,0
2017-09-20T04:19:45.065Z,0
2017-09-20T04:20:55.401Z,0
2017-09-20T04:22:05.743Z,4
2017-09-20T04:23:16.148Z,4
2017-09-20T04:24:26.500Z,0
2017-09-20T04:25:36.193Z,4
2017-09-20T04:26:46.554Z,4
2017-09-20T04:27:56.913Z,4
2017-09-20T04:29:07.242Z,4
2017-09-20T04:30:17.584Z,4
2017-09-20T04:31:27.939Z,4
2017-09-20T04:32:37.979Z,8
2017-09-20T04:33:48.324Z,8
2017-09-20T04:34:58.719Z,8
2017-09-20T04:36:09.068Z,12
2017-09-20T04:37:19.409Z,8
2017-09-20T04:38:29.412Z,12
2017-09-20T04:39:39.445Z,12
2017-09-20T04:40:49.456Z,16
2017-09-20T04:41:59.494Z,16
2017-09-20T04:43:10.469Z,16
2017-09-20T04:44:20.497Z,20
2017-09-20T04:45:30.831Z,20
2017-09-20T04:46:41.181Z,24
2017-09-20T04:47:51.566Z,28
2017-09-20T04:49:01.903Z,32
2017-09-20T04:50:11.615Z,32
2017-09-20T04:51:21.945Z,36
2017-09-20T04:52:32.293Z,40
2017-09-20T04:53:42.301Z,44
2017-09-20T04:54:52.640Z,48
2017-09-20T04:56:02.977Z,56
2017-09-20T04:57:13.011Z,56
2017-09-20T04:58:23.042Z,64
2017-09-20T04:59:33.452Z,68
2017-09-20T05:00:43.798Z,68
2017-09-20T05:01:53.826Z,72
2017-09-20T05:03:04.188Z,72
2017-09-20T05:04:14.511Z,76
2017-09-20T05:05:24.557Z,80
2017-09-20T05:06:34.614Z,84
2017-09-20T05:07:44.643Z,92
2017-09-20T05:08:54.687Z,96
2017-09-20T05:10:05.050Z,96
2017-09-20T05:11:15.398Z,108
2017-09-20T05:12:25.743Z,116
2017-09-20T05:13:36.100Z,124
2017-09-20T05:14:45.826Z,132
2017-09-20T05:15:56.166Z,144
2017-09-20T05:17:06.562Z,156
2017-09-20T05:18:16.593Z,168
2017-09-20T05:19:26.924Z,172
2017-09-20T05:20:37.259Z,172
2017-09-20T05:21:47.589Z,180
2017-09-20T05:22:57.970Z,188
2017-09-20T05:24:07.992Z,192
2017-09-20T05:25:18.346Z,204
2017-09-20T05:26:28.750Z,220
2017-09-20T05:27:38.781Z,232
2017-09-20T05:28:48.847Z,244
2017-09-20T05:29:59.190Z,260
2017-09-20T05:31:09.542Z,268
2017-09-20T05:32:19.892Z,280
2017-09-20T05:33:30.247Z,292
2017-09-20T05:34:40.622Z,304
2017-09-20T05:35:50.946Z,312
2017-09-20T05:37:00.654Z,324
2017-09-20T05:38:10.673Z,336
2017-09-20T05:39:21.004Z,336
2017-09-20T05:40:31.330Z,356
2017-09-20T05:41:41.677Z,372
2017-09-20T05:42:51.691Z,380
2017-09-20T05:44:01.725Z,388
2017-09-20T05:45:11.743Z,400
2017-09-20T05:46:21.750Z,408
2017-09-20T05:47:31.776Z,412
2017-09-20T05:48:42.123Z,416
2017-09-20T05:49:52.466Z,424
2017-09-20T05:51:03.218Z,432
2017-09-20T05:52:13.607Z,436
2017-09-20T05:53:23.943Z,432
2017-09-20T05:54:33.969Z,432
2017-09-20T05:55:44.015Z,416
2017-09-20T05:56:54.339Z,376
2017-09-20T05:58:04.356Z,344
2017-09-20T05:59:14.689Z,344
2017-09-20T06:00:24.386Z,360
2017-09-20T06:01:34.411Z,376
2017-09-20T06:02:44.775Z,380
2017-09-20T06:03:54.800Z,376
2017-09-20T06:05:04.803Z,372
2017-09-20T06:06:15.130Z,372
2017-09-20T06:07:25.477Z,368
2017-09-20T06:08:35.835Z,364
2017-09-20T06:09:45.236Z,364
2017-09-20T06:10:55.583Z,356
2017-09-20T06:12:06.022Z,360
2017-09-20T06:13:16.376Z,380
2017-09-20T06:14:26.377Z,400
2017-09-20T06:15:36.721Z,412
2017-09-20T06:16:47.075Z,424
2017-09-20T06:17:57.097Z,436
2017-09-20T06:19:06.832Z,464
2017-09-20T06:20:17.185Z,496
2017-09-20T06:21:27.223Z,512
2017-09-20T06:22:37.561Z,544
2017-09-20T06:23:47.901Z,596
2017-09-20T06:24:59.141Z,640
2017-09-20T06:26:09.170Z,664
2017-09-20T06:27:19.507Z,668
2017-09-20T06:28:29.853Z,720
2017-09-20T06:29:40.195Z,788
2017-09-20T06:30:50.558Z,828
2017-09-20T06:32:00.903Z,860
2017-09-20T06:33:10.666Z,880
2017-09-20T06:34:21.017Z,888
2017-09-20T06:35:31.366Z,872
2017-09-20T06:36:41.394Z,852
2017-09-20T06:37:51.746Z,832
2017-09-20T06:39:02.113Z,832
2017-09-20T06:40:12.466Z,860
2017-09-20T06:41:22.828Z,900
2017-09-20T06:42:32.855Z,956
2017-09-20T06:43:42.871Z,1000
2017-09-20T06:44:53.214Z,1012
2017-09-20T06:46:03.555Z,1020
2017-09-20T06:47:13.927Z,1028
2017-09-20T06:48:23.945Z,1032
2017-09-20T06:49:34.317Z,1060
2017-09-20T06:50:44.650Z,1056
2017-09-20T06:51:54.993Z,1044
2017-09-20T06:53:06.470Z,1032
2017-09-20T06:54:17.601Z,1060
2017-09-20T06:55:28.429Z,1088
2017-09-20T06:56:39.635Z,1116
2017-09-20T06:57:49.680Z,1104
2017-09-20T06:58:59.377Z,1148
2017-09-20T07:00:09.716Z,1260
2017-09-20T07:01:19.728Z,1396
2017-09-20T07:02:30.055Z,1500
2017-09-20T07:03:40.389Z,1544
2017-09-20T07:04:50.752Z,1596
2017-09-20T07:06:00.776Z,1616
2017-09-20T07:07:11.121Z,1624
2017-09-20T07:08:21.468Z,1620
2017-09-20T07:09:31.804Z,1584
2017-09-20T07:10:41.840Z,1588
2017-09-20T07:11:54.789Z,1644
2017-09-20T07:13:06.379Z,1648
2017-09-20T07:14:16.746Z,1640
2017-09-20T07:15:26.761Z,1648
2017-09-20T07:16:36.787Z,1632
2017-09-20T07:17:47.146Z,1628
2017-09-20T07:18:57.490Z,1580
2017-09-20T07:20:07.825Z,1580
2017-09-20T07:21:18.223Z,1600
2017-09-20T07:22:28.566Z,1612
2017-09-20T07:23:38.896Z,1632
2017-09-20T07:24:49.245Z,1540
2017-09-20T07:25:59.277Z,1548
2017-09-20T07:27:09.618Z,1552
2017-09-20T07:28:19.964Z,1480
2017-09-20T07:29:30.298Z,1444
2017-09-20T07:30:40.628Z,1608
2017-09-20T07:31:50.964Z,1672
2017-09-20T07:33:01.321Z,1628
2017-09-20T07:34:11.652Z,1520
2017-09-20T07:35:21.665Z,1400
2017-09-20T07:36:32.010Z,1364
2017-09-20T07:37:42.354Z,1520
2017-09-20T07:38:52.694Z,1672
2017-09-20T07:40:03.030Z,1732
2017-09-20T07:41:13.367Z,1720
2017-09-20T07:42:23.691Z,1680
2017-09-20T07:43:34.030Z,1696
2017-09-20T07:44:44.383Z,1840
2017-09-20T07:45:54.720Z,2036
2017-09-20T07:47:05.068Z,2044
2017-09-20T07:48:15.403Z,1800
2017-09-20T07:49:25.424Z,1736
2017-09-20T07:50:35.137Z,1736
2017-09-20T07:51:45.467Z,1716
2017-09-20T07:52:55.495Z,1692
2017-09-20T07:54:05.823Z,1724
2017-09-20T07:55:16.170Z,1800
2017-09-20T07:56:26.183Z,1868
2017-09-20T07:57:36.508Z,2020
2017-09-20T07:58:46.854Z,2108
2017-09-20T07:59:57.197Z,2064
2017-09-20T08:01:07.528Z,1948
2017-09-20T08:02:17.548Z,1728
2017-09-20T08:03:27.881Z,1524
2017-09-20T08:04:37.900Z,1612
2017-09-20T08:05:47.904Z,1692
2017-09-20T08:06:57.907Z,1748
2017-09-20T08:08:08.288Z,1868
2017-09-20T08:09:18.627Z,1872
2017-09-20T08:10:31.837Z,1836
2017-09-20T08:11:41.854Z,1816
2017-09-20T08:12:51.860Z,1816
2017-09-20T08:14:01.932Z,1880
2017-09-20T08:15:12.270Z,1928
2017-09-20T08:16:22.601Z,1960
2017-09-20T08:17:32.944Z,2000
2017-09-20T08:18:43.281Z,2000
2017-09-20T08:19:53.329Z,1980
2017-09-20T08:21:03.338Z,1992
2017-09-20T08:22:13.354Z,2032
2017-09-20T08:23:25.871Z,2068
2017-09-20T08:24:35.900Z,2088
2017-09-20T08:25:46.246Z,2096
2017-09-20T08:26:56.257Z,2112
2017-09-20T08:28:09.337Z,2052
2017-09-20T08:29:19.533Z,2060
2017-09-20T08:30:29.881Z,1968
2017-09-20T08:31:40.068Z,1884
2017-09-20T08:32:50.425Z,1804
2017-09-20T08:34:00.783Z,1712
2017-09-20T08:35:10.818Z,1740
2017-09-20T08:36:21.158Z,1792
2017-09-20T08:37:31.502Z,1828
2017-09-20T08:38:41.863Z,1884
2017-09-20T08:39:51.579Z,1936
2017-09-20T08:41:01.956Z,1912
2017-09-20T08:42:14.373Z,1872
2017-09-20T08:43:24.752Z,1828
2017-09-20T08:44:36.275Z,1820
2017-09-20T08:45:46.669Z,1836
2017-09-20T08:46:57.040Z,1896
2017-09-20T08:48:07.381Z,1920
2017-09-20T08:49:17.806Z,1912
2017-09-20T08:50:28.190Z,1940
2017-09-20T08:51:38.559Z,1940
2017-09-20T08:52:48.610Z,1836
2017-09-20T08:54:01.455Z,1756
2017-09-20T08:55:11.538Z,1676
2017-09-20T08:56:21.919Z,1652
2017-09-20T08:57:32.288Z,1564
2017-09-20T08:58:42.324Z,1540
2017-09-20T08:59:52.715Z,1520
2017-09-20T09:01:03.065Z,1596
2017-09-20T09:02:13.444Z,1616
2017-09-20T09:03:23.475Z,1668
2017-09-20T09:04:33.860Z,1672
2017-09-20T09:05:44.285Z,1704
2017-09-20T09:06:54.724Z,1736
2017-09-20T09:08:05.094Z,1780
2017-09-20T09:09:15.472Z,1760
2017-09-20T09:10:26.093Z,1860
2017-09-20T09:11:36.159Z,1848
2017-09-20T09:12:46.519Z,1836
2017-09-20T09:13:58.557Z,1832
2017-09-20T09:15:08.278Z,1828
2017-09-20T09:16:18.342Z,1864
2017-09-20T09:17:28.708Z,1912
2017-09-20T09:18:38.814Z,1948
2017-09-20T09:19:49.194Z,1988
2017-09-20T09:20:59.571Z,2056
2017-09-20T09:22:09.936Z,2124
2017-09-20T09:23:20.280Z,2176
2017-09-20T09:24:33.160Z,2184
2017-09-20T09:25:43.944Z,2128
2017-09-20T09:26:54.325Z,2124
2017-09-20T09:28:04.363Z,2196
2017-09-20T09:29:14.722Z,2212
2017-09-20T09:30:24.832Z,2164
2017-09-20T09:31:35.183Z,2192
2017-09-20T09:32:45.553Z,2228
2017-09-20T09:33:55.939Z,2188
2017-09-20T09:35:09.035Z,2148
2017-09-20T09:36:21.555Z,2120
2017-09-20T09:37:31.919Z,2164
2017-09-20T09:38:42.279Z,2184
2017-09-20T09:39:52.011Z,2132
2017-09-20T09:41:02.373Z,2108
2017-09-20T09:42:15.538Z,2020
2017-09-20T09:43:25.909Z,2008
2017-09-20T09:44:36.262Z,1972
2017-09-20T09:45:47.515Z,1840
2017-09-20T09:46:57.886Z,1768
2017-09-20T09:48:07.910Z,1700
2017-09-20T09:49:18.300Z,1740
2017-09-20T09:50:28.646Z,1816
2017-09-20T09:51:39.019Z,1844
2017-09-20T09:52:49.382Z,1904
2017-09-20T09:54:00.559Z,1980
2017-09-20T09:55:10.943Z,2052
2017-09-20T09:56:21.308Z,2136
2017-09-20T09:57:31.672Z,2252
2017-09-20T09:58:42.046Z,2372
2017-09-20T09:59:52.015Z,2536
2017-09-20T10:01:02.062Z,2716
2017-09-20T10:02:12.430Z,2900
2017-09-20T10:03:23.221Z,3156
2017-09-20T10:04:33.586Z,3312
2017-09-20T10:05:43.950Z,3168
2017-09-20T10:06:54.303Z,3500
2017-09-20T10:08:04.037Z,3704
2017-09-20T10:09:14.409Z,3820
2017-09-20T10:10:25.011Z,3884
2017-09-20T10:11:34.749Z,3884
2017-09-20T10:12:45.151Z,3600
2017-09-20T10:13:58.054Z,3656
2017-09-20T10:15:08.101Z,3708
2017-09-20T10:16:18.480Z,3868
2017-09-20T10:17:28.872Z,3752
2017-09-20T10:18:39.309Z,3616
2017-09-20T10:19:49.371Z,3516
2017-09-20T10:20:59.832Z,3488
2017-09-20T10:22:10.254Z,3620
2017-09-20T10:23:20.655Z,3828
2017-09-20T10:24:31.087Z,3896
2017-09-20T10:25:41.663Z,4008
2017-09-20T10:26:52.047Z,4184
2017-09-20T10:28:02.400Z,4312
2017-09-20T10:29:12.790Z,4640
2017-09-20T10:30:22.569Z,5024
2017-09-20T10:31:33.184Z,5300
2017-09-20T10:32:43.238Z,5460
2017-09-20T10:33:53.623Z,5504
2017-09-20T10:35:03.996Z,5728
2017-09-20T10:36:14.419Z,5476
2017-09-20T10:37:24.803Z,5680
2017-09-20T10:38:35.149Z,5808
2017-09-20T10:39:45.531Z,5784
2017-09-20T10:40:56.004Z,5804
2017-09-20T10:42:06.442Z,5716
2017-09-20T10:43:16.805Z,5616
2017-09-20T10:44:26.862Z,5344
2017-09-20T10:45:37.240Z,4920
2017-09-20T10:46:47.627Z,4544
2017-09-20T10:47:58.046Z,4228
2017-09-20T10:49:08.556Z,3980
2017-09-20T10:50:18.588Z,3736
2017-09-20T10:51:28.935Z,3504
2017-09-20T10:52:39.296Z,3300
2017-09-20T10:53:49.021Z,3124
2017-09-20T10:54:59.372Z,2992
2017-09-20T10:56:09.739Z,2948
2017-09-20T10:57:20.123Z,2892
2017-09-20T10:58:30.473Z,2816
2017-09-20T10:59:43.032Z,2760
2017-09-20T11:00:53.081Z,2748
2017-09-20T11:02:03.159Z,2780
2017-09-20T11:03:16.815Z,2772
2017-09-20T11:04:26.880Z,2760
2017-09-20T11:05:37.324Z,2760
2017-09-20T11:06:47.377Z,2720
2017-09-20T11:07:57.738Z,2636
2017-09-20T11:09:08.106Z,2640
2017-09-20T11:10:18.477Z,2724
2017-09-20T11:11:28.588Z,2820
2017-09-20T11:12:40.265Z,2880
2017-09-20T11:13:50.644Z,2924
2017-09-20T11:15:01.029Z,2920
2017-09-20T11:16:11.096Z,2888
2017-09-20T11:17:21.500Z,2904
2017-09-20T11:18:31.892Z,2848
2017-09-20T11:19:41.953Z,2668
2017-09-20T11:20:51.657Z,2516
2017-09-20T11:22:02.073Z,2464
2017-09-20T11:23:19.059Z,2472
2017-09-20T11:24:29.115Z,2540
2017-09-20T11:25:39.526Z,2736
2017-09-20T11:26:49.898Z,2992
2017-09-20T11:28:00.246Z,3144
2017-09-20T11:29:10.605Z,3180
2017-09-20T11:30:20.981Z,3204
2017-09-20T11:31:31.360Z,3248
2017-09-20T11:32:41.744Z,3404
2017-09-20T11:33:51.792Z,3564
2017-09-20T11:35:01.834Z,3640
2017-09-20T11:36:12.220Z,3676
2017-09-20T11:37:24.999Z,3688
2017-09-20T11:38:35.047Z,3668
2017-09-20T11:39:45.418Z,3612
2017-09-20T11:40:55.861Z,3440
2017-09-20T11:42:06.209Z,3476
2017-09-20T11:43:16.279Z,3652
2017-09-20T11:44:26.644Z,3732
2017-09-20T11:45:36.722Z,3796
2017-09-20T11:46:46.507Z,3888
2017-09-20T11:47:56.876Z,3972
2017-09-20T11:49:07.261Z,4008
2017-09-20T11:50:17.307Z,3992
2017-09-20T11:51:27.664Z,4052
2017-09-20T11:52:38.044Z,4128
2017-09-20T11:53:48.114Z,4116
2017-09-20T11:54:58.495Z,4004
2017-09-20T11:56:08.544Z,3988
2017-09-20T11:57:18.953Z,4020
2017-09-20T11:58:29.011Z,4056
2017-09-20T11:59:39.385Z,4000
2017-09-20T12:00:50.331Z,3924
2017-09-20T12:02:00.378Z,3884
2017-09-20T12:03:10.435Z,3752
2017-09-20T12:04:20.841Z,3616
2017-09-20T12:05:31.204Z,3484
2017-09-20T12:06:41.561Z,3352
2017-09-20T12:07:51.947Z,3220
2017-09-20T12:09:03.782Z,3112
2017-09-20T12:10:14.155Z,3028
2017-09-20T12:11:23.866Z,2980
2017-09-20T12:12:33.898Z,2968
2017-09-20T12:13:44.250Z,2988
2017-09-20T12:14:54.622Z,3020
2017-09-20T12:16:05.052Z,3036
2017-09-20T12:17:15.396Z,3044
2017-09-20T12:18:25.733Z,3072
2017-09-20T12:19:36.079Z,3124
2017-09-20T12:20:46.437Z,3188
2017-09-20T12:21:56.806Z,3216
2017-09-20T12:23:09.759Z,3240
2017-09-20T12:24:19.803Z,3244
2017-09-20T12:25:32.064Z,3208
2017-09-20T12:26:42.470Z,3136
2017-09-20T12:27:52.821Z,3040
2017-09-20T12:29:03.197Z,2924
2017-09-20T12:30:13.558Z,2800
2017-09-20T12:31:23.600Z,2676
2017-09-20T12:32:33.999Z,2572
2017-09-20T12:33:44.401Z,2476
2017-09-20T12:34:54.750Z,2388
2017-09-20T12:36:05.123Z,2308
2017-09-20T12:37:15.149Z,2248
2017-09-20T12:38:25.540Z,2196
2017-09-20T12:39:35.601Z,2140
2017-09-20T12:40:45.943Z,2088
2017-09-20T12:41:56.296Z,2064
2017-09-20T12:43:06.645Z,2056
2017-09-20T12:44:17.026Z,2064
2017-09-20T12:45:27.378Z,2096
2017-09-20T12:46:37.806Z,2116
2017-09-20T12:47:48.164Z,2104
2017-09-20T12:48:58.510Z,2120
2017-09-20T12:50:10.152Z,2168
2017-09-20T12:51:20.528Z,2212
2017-09-20T12:52:30.880Z,2260
2017-09-20T12:53:41.239Z,2400
2017-09-20T12:54:51.580Z,2460
2017-09-20T12:56:01.968Z,2496
2017-09-20T12:57:11.997Z,2536
2017-09-20T12:58:22.337Z,2576
2017-09-20T12:59:32.035Z,2532
2017-09-20T13:00:42.093Z,2464
2017-09-20T13:01:52.465Z,2412
2017-09-20T13:03:02.808Z,2340
2017-09-20T13:04:12.851Z,2292
2017-09-20T13:05:22.892Z,2272
2017-09-20T13:06:33.267Z,2200
2017-09-20T13:07:43.366Z,2104
2017-09-20T13:08:53.413Z,2040
2017-09-20T13:10:03.766Z,2000
2017-09-20T13:11:14.121Z,1972
2017-09-20T13:12:24.186Z,1940
2017-09-20T13:13:34.581Z,1912
2017-09-20T13:14:44.620Z,1876
2017-09-20T13:15:54.974Z,1836
2017-09-20T13:17:04.997Z,1792
2017-09-20T13:18:15.378Z,1740
2017-09-20T13:19:25.783Z,1680
2017-09-20T13:20:36.171Z,1620
2017-09-20T13:21:46.541Z,1564
2017-09-20T13:22:56.603Z,1520
2017-09-20T13:24:07.004Z,1472
2017-09-20T13:25:17.349Z,1436
2017-09-20T13:26:27.388Z,1388
2017-09-20T13:27:37.752Z,1348
2017-09-20T13:28:48.105Z,1316
2017-09-20T13:29:58.469Z,1288
2017-09-20T13:31:08.874Z,1272
2017-09-20T13:32:19.235Z,1252
2017-09-20T13:33:29.266Z,1228
2017-09-20T13:34:39.613Z,1224
2017-09-20T13:35:49.972Z,1208
2017-09-20T13:37:00.371Z,1208
2017-09-20T13:38:10.425Z,1208
2017-09-20T13:39:23.158Z,1216
2017-09-20T13:40:33.512Z,1228
2017-09-20T13:41:43.898Z,1228
2017-09-20T13:42:54.301Z,1220
2017-09-20T13:44:03.721Z,1216
2017-09-20T13:45:13.744Z,1208
2017-09-20T13:46:23.777Z,1200
2017-09-20T13:47:34.152Z,1176
2017-09-20T13:48:44.508Z,1164
2017-09-20T13:49:54.547Z,1156
2017-09-20T13:51:04.603Z,1132
2017-09-20T13:52:14.005Z,1088
2017-09-20T13:53:24.054Z,1044
2017-09-20T13:54:34.416Z,1008
2017-09-20T13:55:44.775Z,960
2017-09-20T13:56:55.146Z,932
2017-09-20T13:58:05.175Z,936
2017-09-20T13:59:15.579Z,948
2017-09-20T14:00:25.931Z,952
2017-09-20T14:01:35.962Z,944
2017-09-20T14:02:46.314Z,924
2017-09-20T14:03:56.673Z,912
2017-09-20T14:05:07.079Z,892
2017-09-20T14:06:17.441Z,892
2017-09-20T14:07:27.806Z,908
2017-09-20T14:08:37.842Z,904
2017-09-20T14:09:47.584Z,912
2017-09-20T14:10:57.937Z,932
2017-09-20T14:12:08.002Z,944
2017-09-20T14:13:18.367Z,956
2017-09-20T14:14:28.718Z,976
2017-09-20T14:15:42.649Z,996
2017-09-20T14:16:52.099Z,1016
2017-09-20T14:18:02.449Z,1020
2017-09-20T14:19:12.796Z,1012
2017-09-20T14:20:23.157Z,992
2017-09-20T14:21:33.507Z,956
2017-09-20T14:22:43.563Z,920
2017-09-20T14:23:53.925Z,884
2017-09-20T14:25:03.961Z,860
2017-09-20T14:26:14.323Z,840
2017-09-20T14:27:24.682Z,816
2017-09-20T14:28:34.425Z,816
2017-09-20T14:29:44.785Z,800
2017-09-20T14:30:55.148Z,784
2017-09-20T14:32:05.501Z,768
2017-09-20T14:33:15.867Z,756
2017-09-20T14:34:26.276Z,756
2017-09-20T14:35:36.625Z,760
2017-09-20T14:36:46.981Z,756
2017-09-20T14:37:57.017Z,764
2017-09-20T14:39:07.365Z,764
2017-09-20T14:40:17.743Z,760
2017-09-20T14:41:28.092Z,756
2017-09-20T14:42:38.463Z,740
2017-09-20T14:43:48.800Z,712
2017-09-20T14:44:59.154Z,688
2017-09-20T14:46:09.500Z,700
2017-09-20T14:47:19.871Z,728
2017-09-20T14:48:29.905Z,760
2017-09-20T14:49:40.242Z,788
2017-09-20T14:50:50.300Z,812
2017-09-20T14:52:00.613Z,828
2017-09-20T14:53:10.961Z,848
2017-09-20T14:54:21.332Z,860
2017-09-20T14:55:31.680Z,864
2017-09-20T14:56:42.024Z,868
2017-09-20T14:57:52.424Z,880
2017-09-20T14:59:02.454Z,892
2017-09-20T15:00:12.817Z,896
2017-09-20T15:01:22.890Z,888
2017-09-20T15:02:33.256Z,880
2017-09-20T15:03:43.269Z,892
2017-09-20T15:04:53.697Z,916
2017-09-20T15:06:04.056Z,940
2017-09-20T15:07:14.442Z,948
2017-09-20T15:08:24.813Z,936
2017-09-20T15:09:35.154Z,920
2017-09-20T15:10:45.574Z,920
2017-09-20T15:11:55.959Z,920
2017-09-20T15:13:06.022Z,916
2017-09-20T15:14:16.378Z,912
2017-09-20T15:15:26.739Z,908
2017-09-20T15:16:37.088Z,896
2017-09-20T15:17:47.466Z,884
2017-09-20T15:18:57.844Z,868
2017-09-20T15:20:08.205Z,848
2017-09-20T15:21:18.577Z,832
2017-09-20T15:22:28.932Z,812
2017-09-20T15:23:38.980Z,800
2017-09-20T15:24:49.033Z,776
2017-09-20T15:25:59.404Z,752
2017-09-20T15:27:09.839Z,728
2017-09-20T15:28:19.567Z,704
2017-09-20T15:29:29.598Z,676
2017-09-20T15:30:39.991Z,652
2017-09-20T15:31:50.017Z,628
2017-09-20T15:33:00.401Z,616
2017-09-20T15:34:10.757Z,604
2017-09-20T15:35:20.787Z,604
2017-09-20T15:36:30.887Z,600
2017-09-20T15:37:40.939Z,596
2017-09-20T15:38:51.352Z,584
2017-09-20T15:40:01.717Z,580
2017-09-20T15:41:12.095Z,564
2017-09-20T15:42:24.352Z,580
2017-09-20T15:43:34.696Z,572
2017-09-20T15:44:45.108Z,572
2017-09-20T15:45:55.464Z,572
2017-09-20T15:47:05.835Z,552
2017-09-20T15:48:15.885Z,540
2017-09-20T15:49:26.235Z,524
2017-09-20T15:50:35.937Z,516
2017-09-20T15:51:45.983Z,500
2017-09-20T15:52:56.350Z,472
2017-09-20T15:54:06.075Z,444
2017-09-20T15:55:15.787Z,412
2017-09-20T15:56:25.837Z,388
2017-09-20T15:57:37.551Z,372
2017-09-20T15:58:48.138Z,356
2017-09-20T15:59:58.497Z,336
2017-09-20T16:01:08.853Z,312
2017-09-20T16:02:19.206Z,292
2017-09-20T16:03:29.573Z,280
2017-09-20T16:04:39.289Z,268
2017-09-20T16:05:49.641Z,248
2017-09-20T16:07:00.616Z,220
2017-09-20T16:08:11.747Z,196
2017-09-20T16:09:22.089Z,192
2017-09-20T16:10:32.461Z,192
2017-09-20T16:11:42.818Z,200
2017-09-20T16:12:53.190Z,196
2017-09-20T16:14:03.286Z,192
2017-09-20T16:15:13.690Z,180
2017-09-20T16:16:24.242Z,172
2017-09-20T16:17:34.589Z,164
2017-09-20T16:18:44.626Z,160
2017-09-20T16:19:54.694Z,156
2017-09-20T16:21:05.067Z,152
2017-09-20T16:22:15.425Z,148
2017-09-20T16:23:25.809Z,144
2017-09-20T16:24:35.866Z,136
2017-09-20T16:25:46.281Z,128
2017-09-20T16:26:56.666Z,120
2017-09-20T16:28:07.294Z,108
2017-09-20T16:29:17.651Z,104
2017-09-20T16:30:28.038Z,92
2017-09-20T16:31:38.394Z,88
2017-09-20T16:32:48.769Z,84
2017-09-20T16:33:58.840Z,76
2017-09-20T16:35:09.206Z,76
2017-09-20T16:36:19.258Z,72
2017-09-20T16:37:29.648Z,68
2017-09-20T16:38:40.030Z,64
2017-09-20T16:39:50.395Z,64
2017-09-20T16:41:00.799Z,56
2017-09-20T16:42:11.160Z,56
2017-09-20T16:43:21.542Z,52